createdAt,value
2022-08-30T00:01:22.561Z,0.70
2022-08-30T00:03:50.498Z,0.80
2022-08-30T00:06:21.082Z,1.10
2022-08-30T00:08:49.229Z,0.90
2022-08-30T00:11:20.026Z,0.90
2022-08-30T00:13:49.116Z,0.90
2022-08-30T00:16:21.048Z,0.95
2022-08-30T00:18:48.934Z,0.80
2022-08-30T00:21:16.644Z,0.82
2022-08-30T00:23:44.013Z,0.70
2022-08-30T00:26:11.196Z,0.98
2022-08-30T00:28:38.412Z,0.70
2022-08-30T00:31:06.603Z,0.90
2022-08-30T00:33:33.907Z,0.93
2022-08-30T00:36:01.547Z,0.82
2022-08-30T00:38:29.078Z,0.90
2022-08-30T00:40:56.638Z,1.10
2022-08-30T00:43:27.911Z,0.90
2022-08-30T00:45:56.350Z,0.70
2022-08-30T00:48:24.180Z,1.00
2022-08-30T00:51:03.693Z,0.80
2022-08-30T00:53:35.374Z,0.90
2022-08-30T00:56:03.791Z,0.65
2022-08-30T00:58:45.195Z,1.10
2022-08-30T01:01:15.966Z,1.23
2022-08-30T01:03:44.853Z,1.20
2022-08-30T01:06:15.742Z,0.90
2022-08-30T01:08:45.136Z,1.40
2022-08-30T01:11:18.579Z,0.75
2022-08-30T01:13:47.494Z,1.00
2022-08-30T01:16:15.310Z,1.27
2022-08-30T01:18:44.600Z,0.80
2022-08-30T01:21:31.244Z,0.75
2022-08-30T01:23:59.746Z,1.17
2022-08-30T01:26:29.010Z,1.00
2022-08-30T01:29:00.375Z,1.00
2022-08-30T01:31:27.734Z,0.90
2022-08-30T01:33:55.014Z,1.08
2022-08-30T01:36:22.766Z,0.70
2022-08-30T01:38:56.981Z,0.73
2022-08-30T01:41:33.242Z,1.02
2022-08-30T01:44:04.058Z,0.82
2022-08-30T01:46:38.063Z,1.23
2022-08-30T01:49:09.532Z,0.98
2022-08-30T01:51:37.457Z,1.00
2022-08-30T01:54:04.879Z,0.70
2022-08-30T01:56:32.308Z,0.80
2022-08-30T01:59:02.880Z,0.85
2022-08-30T02:01:33.027Z,1.20
2022-08-30T02:04:00.810Z,1.15
2022-08-30T02:06:28.292Z,1.10
2022-08-30T02:08:55.899Z,1.02
2022-08-30T02:11:23.066Z,0.80
2022-08-30T02:13:50.798Z,1.00
2022-08-30T02:16:22.857Z,1.23
2022-08-30T02:18:52.176Z,1.15
2022-08-30T02:21:20.396Z,0.85
2022-08-30T02:23:47.718Z,1.05
2022-08-30T02:26:15.924Z,0.90
2022-08-30T02:28:49.645Z,0.90
2022-08-30T02:31:20.432Z,0.85
2022-08-30T02:33:51.067Z,0.73
2022-08-30T02:36:19.074Z,0.88
2022-08-30T02:38:46.852Z,1.20
2022-08-30T02:41:14.727Z,0.85
2022-08-30T02:43:41.895Z,0.80
2022-08-30T02:46:09.487Z,0.80
2022-08-30T02:48:37.169Z,1.08
2022-08-30T02:51:11.163Z,0.82
2022-08-30T02:53:40.361Z,1.20
2022-08-30T02:56:08.775Z,1.15
2022-08-30T02:58:36.627Z,1.20
2022-08-30T03:01:06.015Z,1.00
2022-08-30T03:03:33.816Z,0.88
2022-08-30T03:06:03.413Z,0.90
2022-08-30T03:08:32.119Z,0.88
2022-08-30T03:11:00.208Z,1.02
2022-08-30T03:13:29.222Z,1.05
2022-08-30T03:15:57.190Z,0.80
2022-08-30T03:18:25.608Z,0.90
2022-08-30T03:20:54.245Z,0.98
2022-08-30T03:23:24.079Z,1.10
2022-08-30T03:25:52.091Z,0.80
2022-08-30T03:28:19.423Z,0.70
2022-08-30T03:30:49.609Z,0.70
2022-08-30T03:33:18.246Z,0.90
2022-08-30T03:35:48.321Z,0.73
2022-08-30T03:38:16.183Z,1.10
2022-08-30T03:40:43.601Z,0.95
2022-08-30T03:43:11.269Z,0.93
2022-08-30T03:45:39.427Z,1.10
2022-08-30T03:48:06.747Z,1.10
2022-08-30T03:50:35.397Z,0.80
2022-08-30T03:53:03.048Z,0.90
2022-08-30T03:55:31.131Z,1.13
2022-08-30T03:57:58.639Z,1.40
2022-08-30T04:00:26.522Z,1.30
2022-08-30T04:02:53.753Z,1.48
2022-08-30T04:05:21.132Z,1.10
2022-08-30T04:07:48.564Z,1.33
2022-08-30T04:10:15.771Z,0.90
2022-08-30T04:12:47.439Z,1.10
2022-08-30T04:15:18.489Z,1.00
2022-08-30T04:17:45.872Z,0.90
2022-08-30T04:20:13.251Z,1.08
2022-08-30T04:22:40.528Z,1.00
2022-08-30T04:25:08.791Z,1.23
2022-08-30T04:27:42.854Z,1.00
2022-08-30T04:30:10.648Z,1.05
2022-08-30T04:32:38.955Z,1.00
2022-08-30T04:35:06.691Z,0.80
2022-08-30T04:37:33.840Z,1.00
2022-08-30T04:40:01.064Z,0.98
2022-08-30T04:42:31.694Z,1.13
2022-08-30T04:45:01.624Z,0.88
2022-08-30T04:47:28.963Z,0.70
2022-08-30T04:49:56.357Z,0.80
2022-08-30T04:52:23.635Z,0.70
2022-08-30T04:54:55.833Z,0.90
2022-08-30T04:57:23.851Z,0.80
2022-08-30T04:59:53.897Z,0.82
2022-08-30T05:02:21.573Z,0.70
2022-08-30T05:05:07.493Z,0.80
2022-08-30T05:07:35.098Z,0.90
2022-08-30T05:10:07.838Z,0.80
2022-08-30T05:12:37.829Z,0.80
2022-08-30T05:15:06.005Z,0.70
2022-08-30T05:17:33.329Z,0.88
2022-08-30T05:20:02.517Z,0.75
2022-08-30T05:22:32.152Z,0.88
2022-08-30T05:24:59.850Z,0.80
2022-08-30T05:27:27.048Z,0.80
2022-08-30T05:29:55.549Z,0.90
2022-08-30T05:32:22.890Z,0.70
2022-08-30T05:34:51.411Z,0.60
2022-08-30T05:37:18.708Z,0.70
2022-08-30T05:39:51.428Z,0.95
2022-08-30T05:42:19.523Z,0.63
2022-08-30T05:44:47.867Z,1.00
2022-08-30T05:47:15.314Z,0.90
2022-08-30T05:49:42.472Z,0.70
2022-08-30T05:52:09.900Z,0.70
2022-08-30T05:54:37.107Z,0.65
2022-08-30T05:57:04.508Z,0.60
2022-08-30T05:59:31.820Z,0.90
2022-08-30T06:01:59.895Z,1.00
2022-08-30T06:04:27.240Z,0.90
2022-08-30T06:06:54.439Z,0.77
2022-08-30T06:09:26.933Z,0.60
2022-08-30T06:11:54.832Z,0.80
2022-08-30T06:14:22.218Z,0.82
2022-08-30T06:16:50.570Z,0.88
2022-08-30T06:19:19.547Z,0.65
2022-08-30T06:21:50.705Z,1.27
2022-08-30T06:24:19.021Z,0.70
2022-08-30T06:26:47.569Z,0.60
2022-08-30T06:46:35.180Z,0.60
2022-08-30T06:49:05.765Z,0.70
2022-08-30T06:51:37.069Z,0.90
2022-08-30T06:54:05.442Z,0.70
2022-08-30T06:56:37.180Z,0.60
2022-08-30T06:59:05.708Z,0.82
2022-08-30T07:01:33.576Z,0.90
2022-08-30T07:04:01.900Z,0.70
2022-08-30T07:06:30.195Z,0.60
2022-08-30T07:08:58.006Z,0.80
2022-08-30T07:11:31.298Z,0.60
2022-08-30T07:13:58.956Z,0.80
2022-08-30T07:16:27.176Z,0.60
2022-08-30T07:18:55.511Z,0.85
2022-08-30T07:21:27.797Z,0.90
2022-08-30T07:23:57.258Z,0.90
2022-08-30T07:26:29.318Z,0.85
2022-08-30T07:28:57.595Z,0.60
2022-08-30T07:31:25.773Z,0.70
2022-08-30T07:33:53.323Z,0.75
2022-08-30T07:36:22.130Z,0.73
2022-08-30T07:38:50.768Z,0.60
2022-08-30T07:41:23.697Z,0.77
2022-08-30T07:43:51.792Z,0.77
2022-08-30T07:46:19.609Z,0.90
2022-08-30T07:48:47.015Z,0.77
2022-08-30T07:51:18.396Z,0.60
2022-08-30T07:53:46.671Z,0.70
2022-08-30T07:56:15.268Z,0.80
2022-08-30T07:58:42.648Z,1.30
2022-08-30T08:01:13.619Z,1.10
2022-08-30T08:03:42.717Z,0.75
2022-08-30T08:06:12.645Z,1.10
2022-08-30T08:08:43.551Z,0.70
2022-08-30T08:11:18.266Z,0.70
2022-08-30T08:13:53.403Z,0.77
2022-08-30T08:16:26.088Z,0.80
2022-08-30T08:18:55.272Z,0.75
2022-08-30T08:21:26.563Z,0.57
2022-08-30T08:23:54.583Z,0.73
2022-08-30T08:26:25.060Z,0.70
2022-08-30T08:28:52.315Z,0.60
2022-08-30T08:31:29.936Z,0.60
2022-08-30T08:34:06.141Z,0.50
2022-08-30T08:36:35.987Z,1.00
2022-08-30T08:39:05.125Z,0.70
2022-08-30T08:41:56.821Z,0.70
2022-08-30T08:44:54.320Z,0.80
2022-08-30T08:47:47.897Z,0.70
2022-08-30T08:50:20.647Z,0.50
2022-08-30T08:53:25.032Z,0.63
2022-08-30T08:55:58.444Z,0.70
2022-08-30T08:58:28.470Z,0.80
2022-08-30T09:00:58.254Z,0.70
2022-08-30T09:03:28.531Z,0.70
2022-08-30T09:05:57.646Z,0.60
2022-08-30T09:08:24.948Z,0.60
2022-08-30T09:11:02.893Z,1.20
2022-08-30T09:13:30.067Z,2.03
2022-08-30T09:15:59.561Z,0.80
2022-08-30T09:18:51.427Z,2.00
2022-08-30T09:21:25.495Z,1.70
2022-08-30T09:24:15.847Z,0.90
2022-08-30T09:26:53.386Z,0.80
2022-08-30T09:29:20.819Z,1.00
2022-08-30T09:32:10.247Z,0.93
2022-08-30T09:34:44.192Z,0.90
2022-08-30T09:37:33.473Z,0.90
2022-08-30T09:40:02.698Z,0.80
2022-08-30T09:42:32.295Z,0.85
2022-08-30T09:45:12.463Z,0.68
2022-08-30T09:47:43.122Z,0.90
2022-08-30T09:50:15.423Z,1.05
2022-08-30T09:52:56.928Z,1.10
2022-08-30T09:55:41.231Z,0.75
2022-08-30T09:58:43.904Z,1.00
2022-08-30T10:01:14.794Z,0.75
2022-08-30T10:03:42.143Z,0.77
2022-08-30T10:06:19.534Z,0.70
2022-08-30T10:09:19.275Z,0.73
2022-08-30T10:12:04.234Z,0.80
2022-08-30T10:14:40.552Z,0.70
2022-08-30T10:17:12.408Z,0.77
2022-08-30T10:19:58.355Z,0.70
2022-08-30T10:22:34.631Z,0.82
2022-08-30T10:25:17.787Z,0.68
2022-08-30T10:27:52.440Z,0.80
2022-08-30T10:30:20.322Z,0.77
2022-08-30T10:33:07.120Z,0.60
2022-08-30T10:35:43.535Z,0.77
2022-08-30T10:38:36.182Z,0.80
2022-08-30T10:41:28.399Z,0.63
2022-08-30T10:43:55.724Z,0.65
2022-08-30T10:46:51.171Z,0.50
2022-08-30T10:49:22.833Z,0.50
2022-08-30T10:52:22.715Z,0.57
2022-08-30T10:55:15.330Z,0.60
2022-08-30T10:57:45.524Z,0.50
2022-08-30T11:00:26.658Z,0.50
2022-08-30T11:03:05.953Z,0.55
2022-08-30T11:05:33.078Z,0.50
2022-08-30T11:08:20.680Z,0.52
2022-08-30T11:11:06.662Z,0.50
2022-08-30T11:13:41.862Z,0.50
2022-08-30T11:16:16.065Z,0.57
2022-08-30T11:18:54.170Z,0.40
2022-08-30T11:21:34.712Z,0.55
2022-08-30T11:24:11.304Z,0.63
2022-08-30T11:26:45.586Z,0.50
2022-08-30T11:29:28.835Z,1.02
2022-08-30T11:31:59.747Z,0.70
2022-08-30T11:34:46.727Z,0.70
2022-08-30T11:37:37.418Z,0.98
2022-08-30T11:40:20.015Z,0.57
2022-08-30T11:42:52.475Z,0.50
2022-08-30T11:45:25.034Z,0.70
2022-08-30T11:47:54.945Z,0.70
2022-08-30T11:50:48.502Z,0.65
2022-08-30T11:53:46.997Z,0.60
2022-08-30T11:56:22.684Z,0.50
2022-08-30T11:59:04.614Z,0.60
2022-08-30T12:01:51.694Z,0.90
2022-08-30T12:04:24.823Z,0.50
2022-08-30T12:07:00.436Z,0.40
2022-08-30T12:09:47.619Z,0.70
2022-08-30T12:12:28.023Z,0.70
2022-08-30T12:14:57.660Z,0.82
2022-08-30T12:17:51.571Z,0.85
2022-08-30T12:20:38.103Z,0.43
2022-08-30T12:23:24.190Z,0.60
2022-08-30T12:26:08.935Z,0.68
2022-08-30T12:28:42.154Z,0.70
2022-08-30T12:31:12.859Z,0.77
2022-08-30T12:33:47.234Z,0.57
2022-08-30T12:36:35.876Z,0.40
2022-08-30T12:39:35.173Z,0.50
2022-08-30T12:42:17.733Z,0.52
2022-08-30T12:44:46.414Z,0.52
2022-08-30T12:47:18.022Z,0.60
2022-08-30T12:49:49.152Z,0.55
2022-08-30T12:52:28.933Z,0.60
2022-08-30T12:55:17.121Z,0.68
2022-08-30T12:58:00.880Z,0.60
2022-08-30T13:00:32.945Z,0.80
2022-08-30T13:03:26.475Z,0.68
2022-08-30T13:05:57.797Z,0.60
2022-08-30T13:08:37.569Z,0.60
2022-08-30T13:11:25.117Z,0.70
2022-08-30T13:14:22.067Z,0.55
2022-08-30T13:16:50.032Z,0.68
2022-08-30T13:19:37.321Z,0.50
2022-08-30T13:22:05.794Z,0.50
2022-08-30T13:24:33.733Z,0.50
2022-08-30T13:27:06.755Z,0.50
2022-08-30T13:29:34.379Z,0.65
2022-08-30T13:32:01.773Z,0.40
2022-08-30T13:34:33.147Z,0.40
2022-08-30T13:37:00.796Z,0.50
2022-08-30T13:39:29.106Z,0.55
2022-08-30T13:42:31.777Z,0.60
2022-08-30T13:44:45.027Z,0.50
2022-08-30T13:50:05.161Z,0.40
2022-08-30T13:52:32.575Z,0.65
2022-08-30T13:54:59.835Z,0.63
2022-08-30T14:00:20.002Z,0.50
2022-08-30T14:02:54.759Z,0.47
2022-08-30T14:05:49.538Z,0.50
2022-08-30T14:11:18.699Z,0.60
2022-08-30T14:16:36.895Z,0.50
2022-08-30T14:19:04.761Z,0.50
2022-08-30T14:21:59.138Z,0.43
2022-08-30T14:24:26.372Z,0.40
2022-08-30T14:26:53.671Z,0.50
2022-08-30T14:29:26.300Z,0.80
2022-08-30T14:32:27.189Z,0.47
2022-08-30T14:34:57.596Z,0.40
2022-08-30T14:37:24.955Z,0.30
2022-08-30T14:40:03.722Z,0.40
2022-08-30T14:46:16.349Z,0.52
2022-08-30T14:48:46.967Z,0.50
2022-08-30T14:55:43.694Z,0.40
2022-08-30T14:58:48.092Z,0.60
2022-08-30T15:01:18.854Z,0.50
2022-08-30T15:04:16.875Z,0.60
2022-08-30T15:06:46.405Z,0.50
2022-08-30T15:09:19.035Z,0.50
2022-08-30T15:11:52.645Z,0.68
2022-08-30T15:14:20.262Z,0.50
2022-08-30T15:16:53.534Z,0.50
2022-08-30T15:19:20.856Z,0.60
2022-08-30T15:21:49.201Z,0.70
2022-08-30T15:24:31.823Z,0.68
2022-08-30T15:27:08.490Z,0.50
2022-08-30T15:29:36.265Z,0.43
2022-08-30T15:32:33.031Z,0.55
2022-08-30T15:35:00.403Z,0.60
2022-08-30T15:37:33.516Z,0.40
2022-08-30T15:40:13.429Z,0.40
2022-08-30T15:42:42.882Z,0.47
2022-08-30T15:45:13.854Z,0.40
2022-08-30T15:47:47.632Z,0.40
2022-08-30T15:50:17.172Z,0.35
2022-08-30T15:52:47.906Z,0.73
2022-08-30T15:55:17.826Z,0.50
2022-08-30T15:57:50.607Z,0.40
2022-08-30T16:00:28.409Z,0.50
2022-08-30T16:03:01.500Z,0.38
2022-08-30T16:05:36.170Z,0.40
2022-08-30T16:08:06.844Z,0.50
2022-08-30T16:10:40.861Z,0.50
2022-08-30T16:13:22.768Z,0.40
2022-08-30T16:15:54.976Z,0.60
2022-08-30T16:18:33.836Z,0.50
2022-08-30T16:21:26.940Z,0.40
2022-08-30T16:24:05.482Z,0.60
2022-08-30T16:26:33.959Z,0.32
2022-08-30T16:29:07.194Z,0.45
2022-08-30T16:31:36.310Z,0.68
2022-08-30T16:34:09.963Z,0.50
2022-08-30T16:36:37.369Z,0.50
2022-08-30T16:39:09.654Z,0.47
2022-08-30T16:41:44.978Z,0.30
2022-08-30T16:44:13.924Z,0.50
2022-08-30T16:46:54.846Z,0.30
2022-08-30T16:49:54.302Z,0.50
2022-08-30T16:56:52.125Z,0.40
2022-08-30T16:59:19.520Z,0.60
2022-08-30T17:01:48.166Z,0.40
2022-08-30T17:04:19.345Z,0.43
2022-08-30T17:06:49.791Z,0.60
2022-08-30T17:09:18.872Z,0.52
2022-08-30T17:11:48.109Z,0.40
2022-08-30T17:14:21.579Z,0.40
2022-08-30T17:16:55.077Z,0.50
2022-08-30T17:19:26.931Z,0.50
2022-08-30T17:21:56.460Z,0.50
2022-08-30T17:24:26.203Z,0.50
2022-08-30T17:26:54.607Z,0.50
2022-08-30T17:29:22.017Z,0.50
2022-08-30T17:31:50.939Z,0.35
2022-08-30T17:34:21.998Z,0.50
2022-08-30T17:36:50.996Z,0.63
2022-08-30T17:39:50.349Z,0.55
2022-08-30T17:42:33.012Z,0.40
2022-08-30T17:45:18.575Z,0.50
2022-08-30T17:48:00.818Z,0.50
2022-08-30T17:50:28.187Z,0.50
2022-08-30T17:53:09.950Z,0.55
2022-08-30T17:55:56.525Z,0.60
2022-08-30T17:58:57.977Z,0.60
2022-08-30T18:05:41.687Z,0.50
2022-08-30T18:08:49.522Z,0.60
2022-08-30T18:11:17.726Z,0.30
2022-08-30T18:13:45.105Z,0.55
2022-08-30T18:16:15.912Z,0.40
2022-08-30T18:18:52.639Z,0.50
2022-08-30T18:21:25.467Z,0.40
2022-08-30T18:23:56.340Z,0.50
2022-08-30T18:26:24.710Z,0.40
2022-08-30T18:28:52.693Z,0.47
2022-08-30T18:31:20.460Z,0.60
2022-08-30T18:33:48.527Z,0.68
2022-08-30T18:36:16.962Z,0.80
2022-08-30T18:38:45.019Z,0.75
2022-08-30T18:41:14.673Z,0.50
2022-08-30T18:43:43.351Z,0.57
2022-08-30T18:46:14.530Z,0.60
2022-08-30T18:48:42.788Z,0.77
2022-08-30T18:51:16.976Z,0.60
2022-08-30T18:53:54.879Z,0.60
2022-08-30T18:56:28.661Z,0.70
2022-08-30T18:59:08.026Z,0.80
2022-08-30T19:01:35.998Z,0.60
2022-08-30T19:04:04.806Z,0.60
2022-08-30T19:06:32.713Z,0.60
2022-08-30T19:09:01.730Z,0.70
2022-08-30T19:11:38.222Z,0.70
2022-08-30T19:14:07.633Z,0.77
2022-08-30T19:16:35.019Z,0.70
2022-08-30T19:19:04.313Z,1.02
2022-08-30T19:21:33.770Z,0.70
2022-08-30T19:24:01.088Z,0.70
2022-08-30T19:26:28.590Z,0.68
2022-08-30T19:28:56.156Z,0.80
2022-08-30T19:31:23.405Z,0.63
2022-08-30T19:33:50.628Z,0.80
2022-08-30T19:36:17.958Z,1.10
2022-08-30T19:38:45.450Z,0.95
2022-08-30T19:41:13.931Z,0.88
2022-08-30T19:43:41.993Z,0.80
2022-08-30T19:46:09.589Z,0.90
2022-08-30T19:48:43.165Z,0.80
2022-08-30T19:51:14.923Z,1.27
2022-08-30T19:53:43.402Z,1.00
2022-08-30T19:56:12.326Z,1.08
2022-08-30T19:58:41.837Z,0.90
2022-08-30T20:01:11.930Z,0.80
2022-08-30T20:04:01.784Z,0.77
2022-08-30T20:06:30.809Z,0.90
2022-08-30T20:08:59.887Z,0.90
2022-08-30T20:11:29.059Z,0.93
2022-08-30T20:13:57.278Z,0.80
2022-08-30T20:16:28.339Z,1.00
2022-08-30T20:19:06.456Z,0.90
2022-08-30T20:21:35.512Z,0.80
2022-08-30T20:26:51.117Z,0.90
2022-08-30T20:29:18.364Z,0.70
2022-08-30T20:31:45.935Z,0.75
2022-08-30T20:34:13.186Z,0.85
2022-08-30T20:36:40.592Z,0.70
2022-08-30T20:39:16.510Z,0.80
2022-08-30T20:41:45.570Z,0.82
2022-08-30T20:44:14.584Z,0.80
2022-08-30T20:46:47.526Z,0.80
2022-08-30T20:49:15.262Z,0.70
2022-08-30T20:51:42.714Z,0.68
2022-08-30T20:54:10.145Z,0.70
2022-08-30T20:56:40.645Z,0.80
2022-08-30T20:59:08.049Z,1.00
2022-08-30T21:01:38.584Z,0.70
2022-08-30T21:04:09.603Z,0.77
2022-08-30T21:07:02.081Z,0.88
2022-08-30T21:09:29.431Z,0.90
2022-08-30T21:11:56.848Z,0.90
2022-08-30T21:14:24.428Z,0.90
2022-08-30T21:16:51.908Z,0.75
2022-08-30T21:19:19.499Z,0.90
2022-08-30T21:21:46.933Z,1.00
2022-08-30T21:24:16.996Z,0.90
2022-08-30T21:26:44.755Z,0.80
2022-08-30T21:29:12.559Z,0.80
2022-08-30T21:31:40.137Z,0.88
2022-08-30T21:34:07.654Z,1.00
2022-08-30T21:36:47.331Z,0.88
2022-08-30T21:39:21.233Z,0.70
2022-08-30T21:41:51.495Z,0.73
2022-08-30T21:44:23.202Z,0.70
2022-08-30T21:46:53.096Z,0.80
2022-08-30T21:49:22.833Z,0.73
2022-08-30T21:51:52.785Z,1.05
2022-08-30T21:54:20.298Z,0.70
2022-08-30T21:56:49.399Z,0.85
2022-08-30T21:59:19.466Z,0.88
2022-08-30T22:01:48.450Z,0.98
2022-08-30T22:04:16.129Z,0.90
2022-08-30T22:06:48.339Z,0.75
2022-08-30T22:09:18.401Z,0.80
2022-08-30T22:11:47.408Z,0.98
2022-08-30T22:14:15.933Z,0.80
2022-08-30T22:16:44.776Z,0.82
2022-08-30T22:19:12.259Z,0.80
2022-08-30T22:21:41.973Z,1.00
2022-08-30T22:24:10.739Z,1.08
2022-08-30T22:26:38.978Z,0.80
2022-08-30T22:29:08.220Z,0.90
2022-08-30T22:31:41.537Z,1.00
2022-08-30T22:34:10.276Z,0.90
2022-08-30T22:36:38.514Z,0.80
2022-08-30T22:39:08.761Z,0.68
2022-08-30T22:41:37.259Z,0.80
2022-08-30T22:44:04.596Z,0.90
2022-08-30T22:46:38.962Z,0.80
2022-08-30T22:49:09.125Z,0.90
2022-08-30T22:51:37.591Z,0.77
2022-08-30T22:54:07.067Z,1.05
2022-08-30T22:56:35.809Z,0.93
2022-08-30T22:59:04.140Z,0.90
2022-08-30T23:01:42.605Z,1.00
2022-08-30T23:04:11.529Z,0.80
2022-08-30T23:06:39.343Z,0.80
2022-08-30T23:09:07.805Z,0.90
2022-08-30T23:11:36.980Z,0.70
2022-08-30T23:14:05.744Z,0.80
2022-08-30T23:16:33.971Z,0.68
2022-08-30T23:19:01.293Z,0.70
2022-08-30T23:21:30.168Z,0.90
2022-08-30T23:24:17.592Z,0.70
2022-08-30T23:27:05.089Z,0.70
2022-08-30T23:29:52.534Z,0.90
2022-08-30T23:32:39.099Z,1.00
2022-08-30T23:35:29.672Z,0.70
2022-08-30T23:38:18.190Z,0.70
2022-08-30T23:41:03.683Z,0.90
2022-08-30T23:43:49.196Z,0.93
2022-08-30T23:46:35.261Z,0.80
2022-08-30T23:49:21.911Z,0.80
2022-08-30T23:52:07.915Z,1.20
2022-08-30T23:54:57.380Z,0.70
2022-08-30T23:57:45.377Z,0.82
